sensor_id;sensor_type;location;lat;lon;timestamp;P1;durP1;ratioP1;P2;durP2;ratioP2
14603;SDS011;7388;51.078;13.740;2023-04-28T00:01:48;15.07;;;10.33;;
14603;SDS011;7388;51.078;13.740;2023-04-28T00:04:13;10.70;;;9.47;;
14603;SDS011;7388;51.078;13.740;2023-04-28T00:06:39;11.33;;;9.00;;
14603;SDS011;7388;51.078;13.740;2023-04-28T00:09:05;14.07;;;10.50;;
14603;SDS011;7388;51.078;13.740;2023-04-28T00:11:35;10.15;;;9.15;;
14603;SDS011;7388;51.078;13.740;2023-04-28T00:14:03;12.93;;;11.65;;
14603;SDS011;7388;51.078;13.740;2023-04-28T00:16:30;13.52;;;10.75;;
14603;SDS011;7388;51.078;13.740;2023-04-28T00:18:55;10.73;;;9.60;;
14603;SDS011;7388;51.078;13.740;2023-04-28T00:21:21;9.87;;;8.87;;
14603;SDS011;7388;51.078;13.740;2023-04-28T00:23:47;10.47;;;9.37;;
14603;SDS011;7388;51.078;13.740;2023-04-28T00:26:12;10.30;;;9.30;;
14603;SDS011;7388;51.078;13.740;2023-04-28T00:28:38;11.77;;;10.60;;
14603;SDS011;7388;51.078;13.740;2023-04-28T00:31:10;11.40;;;10.03;;
14603;SDS011;7388;51.078;13.740;2023-04-28T00:33:38;10.95;;;9.82;;
14603;SDS011;7388;51.078;13.740;2023-04-28T00:36:04;11.07;;;9.77;;
14603;SDS011;7388;51.078;13.740;2023-04-28T00:38:30;13.93;;;10.60;;
14603;SDS011;7388;51.078;13.740;2023-04-28T00:40:56;13.87;;;10.80;;
14603;SDS011;7388;51.078;13.740;2023-04-28T00:43:21;10.53;;;9.30;;
14603;SDS011;7388;51.078;13.740;2023-04-28T00:45:48;13.30;;;10.70;;
14603;SDS011;7388;51.078;13.740;2023-04-28T00:48:14;11.38;;;10.18;;
14603;SDS011;7388;51.078;13.740;2023-04-28T00:50:41;12.05;;;10.85;;
14603;SDS011;7388;51.078;13.740;2023-04-28T00:53:10;11.93;;;10.73;;
14603;SDS011;7388;51.078;13.740;2023-04-28T00:55:37;11.20;;;9.65;;
14603;SDS011;7388;51.078;13.740;2023-04-28T00:58:06;10.10;;;9.05;;
14603;SDS011;7388;51.078;13.740;2023-04-28T01:00:32;13.05;;;8.52;;
14603;SDS011;7388;51.078;13.740;2023-04-28T01:02:58;11.43;;;10.20;;
14603;SDS011;7388;51.078;13.740;2023-04-28T01:05:24;15.13;;;10.20;;
14603;SDS011;7388;51.078;13.740;2023-04-28T01:07:50;16.23;;;10.60;;
14603;SDS011;7388;51.078;13.740;2023-04-28T01:10:16;10.07;;;9.07;;
14603;SDS011;7388;51.078;13.740;2023-04-28T01:12:42;11.33;;;9.53;;
14603;SDS011;7388;51.078;13.740;2023-04-28T01:15:14;10.43;;;9.30;;
14603;SDS011;7388;51.078;13.740;2023-04-28T01:17:41;11.98;;;8.90;;
14603;SDS011;7388;51.078;13.740;2023-04-28T01:20:07;13.43;;;9.53;;
14603;SDS011;7388;51.078;13.740;2023-04-28T01:22:33;12.90;;;10.65;;
14603;SDS011;7388;51.078;13.740;2023-04-28T01:24:59;16.70;;;9.57;;
14603;SDS011;7388;51.078;13.740;2023-04-28T01:27:25;10.87;;;9.27;;
14603;SDS011;7388;51.078;13.740;2023-04-28T01:29:50;12.33;;;10.80;;
14603;SDS011;7388;51.078;13.740;2023-04-28T01:32:17;11.60;;;10.40;;
14603;SDS011;7388;51.078;13.740;2023-04-28T01:34:43;13.80;;;10.40;;
14603;SDS011;7388;51.078;13.740;2023-04-28T01:37:08;11.23;;;9.17;;
14603;SDS011;7388;51.078;13.740;2023-04-28T01:39:34;11.83;;;10.30;;
14603;SDS011;7388;51.078;13.740;2023-04-28T01:42:00;14.47;;;10.27;;
14603;SDS011;7388;51.078;13.740;2023-04-28T01:44:26;11.50;;;10.30;;
14603;SDS011;7388;51.078;13.740;2023-04-28T01:46:52;13.75;;;9.70;;
14603;SDS011;7388;51.078;13.740;2023-04-28T01:49:18;12.07;;;10.97;;
14603;SDS011;7388;51.078;13.740;2023-04-28T01:51:44;9.98;;;9.00;;
14603;SDS011;7388;51.078;13.740;2023-04-28T01:54:09;18.60;;;9.63;;
14603;SDS011;7388;51.078;13.740;2023-04-28T01:56:35;11.80;;;9.40;;
14603;SDS011;7388;51.078;13.740;2023-04-28T01:59:01;12.40;;;10.50;;
14603;SDS011;7388;51.078;13.740;2023-04-28T02:01:26;13.10;;;10.57;;
14603;SDS011;7388;51.078;13.740;2023-04-28T02:03:52;13.60;;;10.23;;
14603;SDS011;7388;51.078;13.740;2023-04-28T02:06:19;13.55;;;9.95;;
14603;SDS011;7388;51.078;13.740;2023-04-28T02:08:45;12.93;;;10.23;;
14603;SDS011;7388;51.078;13.740;2023-04-28T02:11:11;10.73;;;8.97;;
14603;SDS011;7388;51.078;13.740;2023-04-28T02:13:36;11.23;;;9.37;;
14603;SDS011;7388;51.078;13.740;2023-04-28T02:16:02;11.40;;;10.20;;
14603;SDS011;7388;51.078;13.740;2023-04-28T02:18:28;12.67;;;10.20;;
14603;SDS011;7388;51.078;13.740;2023-04-28T02:20:55;10.73;;;9.35;;
14603;SDS011;7388;51.078;13.740;2023-04-28T02:23:20;10.90;;;9.77;;
14603;SDS011;7388;51.078;13.740;2023-04-28T02:25:46;14.40;;;10.27;;
14603;SDS011;7388;51.078;13.740;2023-04-28T02:28:12;10.70;;;9.40;;
14603;SDS011;7388;51.078;13.740;2023-04-28T02:30:38;15.07;;;11.00;;
14603;SDS011;7388;51.078;13.740;2023-04-28T02:33:03;14.80;;;11.40;;
14603;SDS011;7388;51.078;13.740;2023-04-28T02:35:29;12.03;;;10.80;;
14603;SDS011;7388;51.078;13.740;2023-04-28T02:37:55;11.90;;;8.50;;
14603;SDS011;7388;51.078;13.740;2023-04-28T02:40:21;15.40;;;10.73;;
14603;SDS011;7388;51.078;13.740;2023-04-28T02:42:46;11.80;;;10.57;;
14603;SDS011;7388;51.078;13.740;2023-04-28T02:45:12;17.03;;;10.97;;
14603;SDS011;7388;51.078;13.740;2023-04-28T02:47:38;12.43;;;10.43;;
14603;SDS011;7388;51.078;13.740;2023-04-28T02:50:04;11.80;;;10.33;;
14603;SDS011;7388;51.078;13.740;2023-04-28T02:52:30;12.25;;;10.10;;
14603;SDS011;7388;51.078;13.740;2023-04-28T02:54:56;12.37;;;9.60;;
14603;SDS011;7388;51.078;13.740;2023-04-28T02:57:22;11.90;;;10.70;;
14603;SDS011;7388;51.078;13.740;2023-04-28T02:59:48;11.20;;;10.05;;
14603;SDS011;7388;51.078;13.740;2023-04-28T03:02:14;13.23;;;10.97;;
14603;SDS011;7388;51.078;13.740;2023-04-28T03:04:40;14.57;;;10.73;;
14603;SDS011;7388;51.078;13.740;2023-04-28T03:07:06;11.30;;;10.10;;
14603;SDS011;7388;51.078;13.740;2023-04-28T03:09:32;16.43;;;11.97;;
14603;SDS011;7388;51.078;13.740;2023-04-28T03:11:57;12.47;;;9.77;;
14603;SDS011;7388;51.078;13.740;2023-04-28T03:14:23;11.93;;;10.37;;
14603;SDS011;7388;51.078;13.740;2023-04-28T03:16:49;11.83;;;10.20;;
14603;SDS011;7388;51.078;13.740;2023-04-28T03:19:15;14.27;;;11.05;;
14603;SDS011;7388;51.078;13.740;2023-04-28T03:21:40;17.93;;;10.77;;
14603;SDS011;7388;51.078;13.740;2023-04-28T03:24:06;14.80;;;10.37;;
14603;SDS011;7388;51.078;13.740;2023-04-28T03:26:32;22.77;;;11.67;;
14603;SDS011;7388;51.078;13.740;2023-04-28T03:28:58;16.10;;;11.27;;
14603;SDS011;7388;51.078;13.740;2023-04-28T03:31:24;20.20;;;11.77;;
14603;SDS011;7388;51.078;13.740;2023-04-28T03:33:50;15.50;;;11.30;;
14603;SDS011;7388;51.078;13.740;2023-04-28T03:36:15;14.63;;;10.70;;
14603;SDS011;7388;51.078;13.740;2023-04-28T03:38:41;21.30;;;10.10;;
14603;SDS011;7388;51.078;13.740;2023-04-28T03:41:07;12.88;;;11.20;;
14603;SDS011;7388;51.078;13.740;2023-04-28T03:43:33;12.73;;;10.80;;
14603;SDS011;7388;51.078;13.740;2023-04-28T03:46:01;11.38;;;10.18;;
14603;SDS011;7388;51.078;13.740;2023-04-28T03:48:28;16.95;;;11.60;;
14603;SDS011;7388;51.078;13.740;2023-04-28T03:50:53;14.13;;;10.43;;
14603;SDS011;7388;51.078;13.740;2023-04-28T03:53:19;10.80;;;9.60;;
14603;SDS011;7388;51.078;13.740;2023-04-28T03:55:45;19.30;;;10.47;;
14603;SDS011;7388;51.078;13.740;2023-04-28T03:58:10;12.97;;;11.67;;
14603;SDS011;7388;51.078;13.740;2023-04-28T04:00:36;12.50;;;11.20;;
14603;SDS011;7388;51.078;13.740;2023-04-28T04:03:02;12.70;;;10.23;;
14603;SDS011;7388;51.078;13.740;2023-04-28T04:05:28;13.67;;;10.60;;
14603;SDS011;7388;51.078;13.740;2023-04-28T04:07:53;12.70;;;11.07;;
14603;SDS011;7388;51.078;13.740;2023-04-28T04:10:20;17.45;;;12.52;;
14603;SDS011;7388;51.078;13.740;2023-04-28T04:12:45;18.97;;;12.20;;
14603;SDS011;7388;51.078;13.740;2023-04-28T04:15:11;20.07;;;11.90;;
14603;SDS011;7388;51.078;13.740;2023-04-28T04:17:37;18.67;;;12.83;;
14603;SDS011;7388;51.078;13.740;2023-04-28T04:20:03;21.20;;;14.70;;
14603;SDS011;7388;51.078;13.740;2023-04-28T04:22:29;19.88;;;14.32;;
14603;SDS011;7388;51.078;13.740;2023-04-28T04:24:55;25.73;;;13.70;;
14603;SDS011;7388;51.078;13.740;2023-04-28T04:27:20;16.77;;;12.33;;
14603;SDS011;7388;51.078;13.740;2023-04-28T04:29:46;16.47;;;12.47;;
14603;SDS011;7388;51.078;13.740;2023-04-28T04:32:12;14.37;;;11.80;;
14603;SDS011;7388;51.078;13.740;2023-04-28T04:34:38;14.83;;;12.47;;
14603;SDS011;7388;51.078;13.740;2023-04-28T04:37:03;21.33;;;13.00;;
14603;SDS011;7388;51.078;13.740;2023-04-28T04:39:30;14.30;;;12.77;;
14603;SDS011;7388;51.078;13.740;2023-04-28T04:41:55;16.93;;;11.03;;
14603;SDS011;7388;51.078;13.740;2023-04-28T04:44:21;14.00;;;12.47;;
14603;SDS011;7388;51.078;13.740;2023-04-28T04:46:47;13.43;;;12.00;;
14603;SDS011;7388;51.078;13.740;2023-04-28T04:49:13;13.70;;;12.17;;
14603;SDS011;7388;51.078;13.740;2023-04-28T04:51:38;16.17;;;11.47;;
14603;SDS011;7388;51.078;13.740;2023-04-28T04:54:04;13.90;;;11.70;;
14603;SDS011;7388;51.078;13.740;2023-04-28T04:56:30;11.67;;;10.47;;
14603;SDS011;7388;51.078;13.740;2023-04-28T04:58:56;22.40;;;11.00;;
14603;SDS011;7388;51.078;13.740;2023-04-28T05:01:21;18.23;;;12.17;;
14603;SDS011;7388;51.078;13.740;2023-04-28T05:03:47;14.40;;;11.90;;
14603;SDS011;7388;51.078;13.740;2023-04-28T05:06:13;16.43;;;12.53;;
14603;SDS011;7388;51.078;13.740;2023-04-28T05:08:38;13.40;;;11.40;;
14603;SDS011;7388;51.078;13.740;2023-04-28T05:11:04;13.30;;;10.87;;
14603;SDS011;7388;51.078;13.740;2023-04-28T05:13:30;12.10;;;10.67;;
14603;SDS011;7388;51.078;13.740;2023-04-28T05:15:56;13.03;;;10.53;;
14603;SDS011;7388;51.078;13.740;2023-04-28T05:18:21;20.47;;;13.43;;
14603;SDS011;7388;51.078;13.740;2023-04-28T05:20:47;14.97;;;10.63;;
14603;SDS011;7388;51.078;13.740;2023-04-28T05:23:13;17.40;;;11.03;;
14603;SDS011;7388;51.078;13.740;2023-04-28T05:25:39;17.07;;;12.17;;
14603;SDS011;7388;51.078;13.740;2023-04-28T05:28:06;15.50;;;12.65;;
14603;SDS011;7388;51.078;13.740;2023-04-28T05:30:33;13.70;;;12.32;;
14603;SDS011;7388;51.078;13.740;2023-04-28T05:32:59;14.87;;;12.20;;
14603;SDS011;7388;51.078;13.740;2023-04-28T05:35:25;15.93;;;13.60;;
14603;SDS011;7388;51.078;13.740;2023-04-28T05:37:51;13.75;;;11.40;;
14603;SDS011;7388;51.078;13.740;2023-04-28T05:40:17;20.37;;;12.00;;
14603;SDS011;7388;51.078;13.740;2023-04-28T05:42:43;17.77;;;14.80;;
14603;SDS011;7388;51.078;13.740;2023-04-28T05:45:08;18.97;;;12.33;;
14603;SDS011;7388;51.078;13.740;2023-04-28T05:47:35;16.90;;;12.20;;
14603;SDS011;7388;51.078;13.740;2023-04-28T05:50:00;14.63;;;13.00;;
14603;SDS011;7388;51.078;13.740;2023-04-28T05:52:26;19.27;;;14.47;;
14603;SDS011;7388;51.078;13.740;2023-04-28T05:54:52;25.73;;;16.90;;
14603;SDS011;7388;51.078;13.740;2023-04-28T05:57:17;25.63;;;18.10;;
14603;SDS011;7388;51.078;13.740;2023-04-28T05:59:43;31.90;;;21.37;;
14603;SDS011;7388;51.078;13.740;2023-04-28T06:02:09;29.90;;;21.37;;
14603;SDS011;7388;51.078;13.740;2023-04-28T06:04:35;34.70;;;23.10;;
14603;SDS011;7388;51.078;13.740;2023-04-28T06:07:02;32.38;;;21.33;;
14603;SDS011;7388;51.078;13.740;2023-04-28T06:09:28;31.23;;;18.10;;
14603;SDS011;7388;51.078;13.740;2023-04-28T06:11:53;23.07;;;15.20;;
14603;SDS011;7388;51.078;13.740;2023-04-28T06:14:19;15.77;;;14.10;;
14603;SDS011;7388;51.078;13.740;2023-04-28T06:16:46;16.13;;;13.15;;
14603;SDS011;7388;51.078;13.740;2023-04-28T06:19:12;17.13;;;12.93;;
14603;SDS011;7388;51.078;13.740;2023-04-28T06:21:39;11.85;;;10.65;;
14603;SDS011;7388;51.078;13.740;2023-04-28T06:24:05;16.95;;;10.13;;
14603;SDS011;7388;51.078;13.740;2023-04-28T06:26:31;17.13;;;11.40;;
14603;SDS011;7388;51.078;13.740;2023-04-28T06:28:56;10.50;;;9.40;;
14603;SDS011;7388;51.078;13.740;2023-04-28T06:31:22;10.97;;;9.10;;
14603;SDS011;7388;51.078;13.740;2023-04-28T06:33:48;11.20;;;9.17;;
14603;SDS011;7388;51.078;13.740;2023-04-28T06:36:14;11.97;;;8.40;;
14603;SDS011;7388;51.078;13.740;2023-04-28T06:38:41;10.68;;;8.30;;
14603;SDS011;7388;51.078;13.740;2023-04-28T06:41:10;11.45;;;8.75;;
14603;SDS011;7388;51.078;13.740;2023-04-28T06:43:36;12.70;;;8.70;;
14603;SDS011;7388;51.078;13.740;2023-04-28T06:46:02;13.80;;;10.30;;
14603;SDS011;7388;51.078;13.740;2023-04-28T06:48:28;11.98;;;8.00;;
14603;SDS011;7388;51.078;13.740;2023-04-28T06:50:54;10.60;;;7.40;;
14603;SDS011;7388;51.078;13.740;2023-04-28T06:53:20;7.90;;;6.60;;
14603;SDS011;7388;51.078;13.740;2023-04-28T06:55:45;12.10;;;8.37;;
14603;SDS011;7388;51.078;13.740;2023-04-28T06:58:11;9.53;;;6.87;;
14603;SDS011;7388;51.078;13.740;2023-04-28T07:00:37;9.20;;;7.50;;
14603;SDS011;7388;51.078;13.740;2023-04-28T07:03:03;12.50;;;6.73;;
14603;SDS011;7388;51.078;13.740;2023-04-28T07:05:29;12.50;;;7.20;;
14603;SDS011;7388;51.078;13.740;2023-04-28T07:07:54;13.17;;;7.87;;
14603;SDS011;7388;51.078;13.740;2023-04-28T07:10:20;8.70;;;7.13;;
14603;SDS011;7388;51.078;13.740;2023-04-28T07:12:46;13.00;;;7.17;;
14603;SDS011;7388;51.078;13.740;2023-04-28T07:15:14;12.65;;;8.63;;
14603;SDS011;7388;51.078;13.740;2023-04-28T07:17:40;7.80;;;6.97;;
14603;SDS011;7388;51.078;13.740;2023-04-28T07:20:06;9.23;;;6.90;;
14603;SDS011;7388;51.078;13.740;2023-04-28T07:22:32;8.68;;;6.93;;
14603;SDS011;7388;51.078;13.740;2023-04-28T07:24:58;11.70;;;6.93;;
14603;SDS011;7388;51.078;13.740;2023-04-28T07:27:23;11.97;;;7.40;;
14603;SDS011;7388;51.078;13.740;2023-04-28T07:29:49;13.30;;;7.30;;
14603;SDS011;7388;51.078;13.740;2023-04-28T07:32:15;8.00;;;7.20;;
14603;SDS011;7388;51.078;13.740;2023-04-28T07:34:41;7.30;;;6.57;;
14603;SDS011;7388;51.078;13.740;2023-04-28T07:37:06;10.80;;;7.53;;
14603;SDS011;7388;51.078;13.740;2023-04-28T07:39:32;9.57;;;7.67;;
14603;SDS011;7388;51.078;13.740;2023-04-28T07:41:59;9.10;;;6.85;;
14603;SDS011;7388;51.078;13.740;2023-04-28T07:44:27;15.38;;;6.35;;
14603;SDS011;7388;51.078;13.740;2023-04-28T07:46:53;8.95;;;7.15;;
14603;SDS011;7388;51.078;13.740;2023-04-28T07:49:19;13.67;;;8.13;;
14603;SDS011;7388;51.078;13.740;2023-04-28T07:51:45;10.52;;;6.95;;
14603;SDS011;7388;51.078;13.740;2023-04-28T07:54:11;11.18;;;7.38;;
14603;SDS011;7388;51.078;13.740;2023-04-28T07:56:37;10.70;;;6.37;;
14603;SDS011;7388;51.078;13.740;2023-04-28T07:59:02;9.77;;;7.27;;
14603;SDS011;7388;51.078;13.740;2023-04-28T08:01:28;8.40;;;6.17;;
14603;SDS011;7388;51.078;13.740;2023-04-28T08:03:54;8.20;;;7.00;;
14603;SDS011;7388;51.078;13.740;2023-04-28T08:06:20;7.80;;;6.43;;
14603;SDS011;7388;51.078;13.740;2023-04-28T08:08:46;10.25;;;6.70;;
14603;SDS011;7388;51.078;13.740;2023-04-28T08:11:11;10.27;;;7.10;;
14603;SDS011;7388;51.078;13.740;2023-04-28T08:13:37;10.47;;;7.40;;
14603;SDS011;7388;51.078;13.740;2023-04-28T08:16:03;8.80;;;6.33;;
14603;SDS011;7388;51.078;13.740;2023-04-28T08:18:29;7.63;;;6.80;;
14603;SDS011;7388;51.078;13.740;2023-04-28T08:20:54;9.50;;;6.80;;
14603;SDS011;7388;51.078;13.740;2023-04-28T08:23:20;8.70;;;7.27;;
14603;SDS011;7388;51.078;13.740;2023-04-28T08:25:46;7.30;;;6.50;;
14603;SDS011;7388;51.078;13.740;2023-04-28T08:28:13;7.68;;;6.88;;
14603;SDS011;7388;51.078;13.740;2023-04-28T08:30:39;13.50;;;7.13;;
14603;SDS011;7388;51.078;13.740;2023-04-28T08:33:05;9.47;;;6.17;;
14603;SDS011;7388;51.078;13.740;2023-04-28T08:35:30;8.00;;;6.57;;
14603;SDS011;7388;51.078;13.740;2023-04-28T08:37:56;10.40;;;6.53;;
14603;SDS011;7388;51.078;13.740;2023-04-28T08:40:22;13.77;;;6.63;;
14603;SDS011;7388;51.078;13.740;2023-04-28T08:42:49;7.15;;;5.70;;
14603;SDS011;7388;51.078;13.740;2023-04-28T08:45:15;10.40;;;6.23;;
14603;SDS011;7388;51.078;13.740;2023-04-28T08:47:41;7.40;;;6.32;;
14603;SDS011;7388;51.078;13.740;2023-04-28T08:50:12;6.80;;;5.97;;
14603;SDS011;7388;51.078;13.740;2023-04-28T08:52:39;8.98;;;5.95;;
14603;SDS011;7388;51.078;13.740;2023-04-28T08:55:07;8.25;;;6.68;;
14603;SDS011;7388;51.078;13.740;2023-04-28T08:57:42;7.13;;;5.80;;
14603;SDS011;7388;51.078;13.740;2023-04-28T09:00:09;11.50;;;7.32;;
14603;SDS011;7388;51.078;13.740;2023-04-28T09:02:36;11.50;;;6.40;;
14603;SDS011;7388;51.078;13.740;2023-04-28T09:05:11;7.10;;;5.35;;
14603;SDS011;7388;51.078;13.740;2023-04-28T09:07:38;10.98;;;6.00;;
14603;SDS011;7388;51.078;13.740;2023-04-28T09:10:25;8.88;;;6.28;;
14603;SDS011;7388;51.078;13.740;2023-04-28T09:12:52;11.73;;;5.60;;
14603;SDS011;7388;51.078;13.740;2023-04-28T09:15:26;8.60;;;5.90;;
14603;SDS011;7388;51.078;13.740;2023-04-28T09:17:53;11.10;;;5.88;;
14603;SDS011;7388;51.078;13.740;2023-04-28T09:20:20;6.55;;;5.47;;
14603;SDS011;7388;51.078;13.740;2023-04-28T09:22:53;8.85;;;6.43;;
14603;SDS011;7388;51.078;13.740;2023-04-28T09:25:21;5.70;;;5.03;;
14603;SDS011;7388;51.078;13.740;2023-04-28T09:27:51;8.48;;;5.85;;
14603;SDS011;7388;51.078;13.740;2023-04-28T09:30:16;8.80;;;6.25;;
14603;SDS011;7388;51.078;13.740;2023-04-28T09:32:42;8.77;;;4.83;;
14603;SDS011;7388;51.078;13.740;2023-04-28T09:35:08;5.55;;;4.95;;
14603;SDS011;7388;51.078;13.740;2023-04-28T09:37:34;7.53;;;5.27;;
14603;SDS011;7388;51.078;13.740;2023-04-28T09:40:02;6.40;;;5.10;;
14603;SDS011;7388;51.078;13.740;2023-04-28T09:42:42;5.85;;;5.38;;
14603;SDS011;7388;51.078;13.740;2023-04-28T09:45:11;11.45;;;5.65;;
14603;SDS011;7388;51.078;13.740;2023-04-28T09:47:38;5.07;;;4.40;;
14603;SDS011;7388;51.078;13.740;2023-04-28T09:50:06;7.40;;;4.97;;
14603;SDS011;7388;51.078;13.740;2023-04-28T09:52:35;9.85;;;5.20;;
14603;SDS011;7388;51.078;13.740;2023-04-28T09:55:02;8.67;;;4.70;;
14603;SDS011;7388;51.078;13.740;2023-04-28T09:57:30;6.22;;;4.50;;
14603;SDS011;7388;51.078;13.740;2023-04-28T09:59:57;6.95;;;4.40;;
14603;SDS011;7388;51.078;13.740;2023-04-28T10:02:23;8.27;;;4.60;;
14603;SDS011;7388;51.078;13.740;2023-04-28T10:04:50;7.93;;;5.15;;
14603;SDS011;7388;51.078;13.740;2023-04-28T10:07:19;10.73;;;4.85;;
14603;SDS011;7388;51.078;13.740;2023-04-28T10:09:46;8.70;;;5.10;;
14603;SDS011;7388;51.078;13.740;2023-04-28T10:12:17;6.10;;;5.10;;
14603;SDS011;7388;51.078;13.740;2023-04-28T10:14:48;9.95;;;4.78;;
14603;SDS011;7388;51.078;13.740;2023-04-28T10:17:18;8.43;;;4.70;;
14603;SDS011;7388;51.078;13.740;2023-04-28T10:19:45;6.50;;;4.90;;
14603;SDS011;7388;51.078;13.740;2023-04-28T10:27:54;5.23;;;4.73;;
14603;SDS011;7388;51.078;13.740;2023-04-28T10:30:22;6.75;;;4.85;;
14603;SDS011;7388;51.078;13.740;2023-04-28T10:38:13;7.00;;;4.57;;
14603;SDS011;7388;51.078;13.740;2023-04-28T10:40:44;6.88;;;4.93;;
14603;SDS011;7388;51.078;13.740;2023-04-28T10:43:11;6.65;;;5.10;;
14603;SDS011;7388;51.078;13.740;2023-04-28T10:48:20;11.65;;;6.53;;
14603;SDS011;7388;51.078;13.740;2023-04-28T10:58:42;8.32;;;6.78;;
14603;SDS011;7388;51.078;13.740;2023-04-28T11:03:55;12.80;;;7.25;;
14603;SDS011;7388;51.078;13.740;2023-04-28T11:06:44;7.80;;;6.65;;
14603;SDS011;7388;51.078;13.740;2023-04-28T11:11:36;8.10;;;7.30;;
14603;SDS011;7388;51.078;13.740;2023-04-28T11:16:51;11.60;;;6.70;;
14603;SDS011;7388;51.078;13.740;2023-04-28T11:20:05;9.68;;;7.43;;
14603;SDS011;7388;51.078;13.740;2023-04-28T11:22:14;9.70;;;7.05;;
14603;SDS011;7388;51.078;13.740;2023-04-28T11:24:40;8.52;;;7.60;;
14603;SDS011;7388;51.078;13.740;2023-04-28T11:27:06;11.90;;;6.80;;
14603;SDS011;7388;51.078;13.740;2023-04-28T11:29:36;8.73;;;7.40;;
14603;SDS011;7388;51.078;13.740;2023-04-28T11:32:04;10.23;;;7.47;;
14603;SDS011;7388;51.078;13.740;2023-04-28T11:34:31;7.38;;;6.68;;
14603;SDS011;7388;51.078;13.740;2023-04-28T11:36:57;8.10;;;7.30;;
14603;SDS011;7388;51.078;13.740;2023-04-28T11:41:53;11.25;;;8.15;;
14603;SDS011;7388;51.078;13.740;2023-04-28T11:44:20;9.13;;;7.20;;
14603;SDS011;7388;51.078;13.740;2023-04-28T11:46:48;9.15;;;8.25;;
14603;SDS011;7388;51.078;13.740;2023-04-28T11:49:24;11.45;;;10.27;;
14603;SDS011;7388;51.078;13.740;2023-04-28T11:51:54;12.27;;;8.40;;
14603;SDS011;7388;51.078;13.740;2023-04-28T11:54:22;10.05;;;8.30;;
14603;SDS011;7388;51.078;13.740;2023-04-28T11:56:49;9.15;;;8.23;;
14603;SDS011;7388;51.078;13.740;2023-04-28T11:59:16;10.23;;;8.50;;
14603;SDS011;7388;51.078;13.740;2023-04-28T12:01:48;10.82;;;8.32;;
14603;SDS011;7388;51.078;13.740;2023-04-28T12:04:37;9.00;;;6.70;;
14603;SDS011;7388;51.078;13.740;2023-04-28T12:07:06;8.68;;;6.55;;
14603;SDS011;7388;51.078;13.740;2023-04-28T12:09:37;7.93;;;7.15;;
14603;SDS011;7388;51.078;13.740;2023-04-28T12:12:08;8.50;;;7.15;;
14603;SDS011;7388;51.078;13.740;2023-04-28T12:14:58;10.20;;;8.32;;
14603;SDS011;7388;51.078;13.740;2023-04-28T12:17:26;9.85;;;8.05;;
14603;SDS011;7388;51.078;13.740;2023-04-28T12:19:54;16.08;;;6.60;;
14603;SDS011;7388;51.078;13.740;2023-04-28T12:22:21;11.30;;;7.35;;
14603;SDS011;7388;51.078;13.740;2023-04-28T12:25:03;9.55;;;7.10;;
14603;SDS011;7388;51.078;13.740;2023-04-28T12:27:36;8.48;;;6.70;;
14603;SDS011;7388;51.078;13.740;2023-04-28T12:30:26;8.40;;;6.35;;
14603;SDS011;7388;51.078;13.740;2023-04-28T12:32:54;11.93;;;7.53;;
14603;SDS011;7388;51.078;13.740;2023-04-28T12:35:21;8.45;;;7.63;;
14603;SDS011;7388;51.078;13.740;2023-04-28T12:37:48;10.68;;;7.82;;
14603;SDS011;7388;51.078;13.740;2023-04-28T12:40:14;7.90;;;7.20;;
14603;SDS011;7388;51.078;13.740;2023-04-28T12:42:40;8.00;;;6.90;;
14603;SDS011;7388;51.078;13.740;2023-04-28T12:45:06;6.93;;;6.20;;
14603;SDS011;7388;51.078;13.740;2023-04-28T12:47:33;7.72;;;7.03;;
14603;SDS011;7388;51.078;13.740;2023-04-28T12:49:59;8.23;;;7.40;;
14603;SDS011;7388;51.078;13.740;2023-04-28T12:52:24;9.70;;;8.43;;
14603;SDS011;7388;51.078;13.740;2023-04-28T12:54:50;10.60;;;8.00;;
14603;SDS011;7388;51.078;13.740;2023-04-28T12:57:16;9.07;;;8.17;;
14603;SDS011;7388;51.078;13.740;2023-04-28T12:59:45;10.93;;;9.40;;
14603;SDS011;7388;51.078;13.740;2023-04-28T13:02:16;11.10;;;9.88;;
14603;SDS011;7388;51.078;13.740;2023-04-28T13:04:42;11.05;;;9.95;;
14603;SDS011;7388;51.078;13.740;2023-04-28T13:07:13;12.43;;;10.88;;
14603;SDS011;7388;51.078;13.740;2023-04-28T13:09:40;15.65;;;10.23;;
14603;SDS011;7388;51.078;13.740;2023-04-28T13:12:06;11.82;;;10.73;;
14603;SDS011;7388;51.078;13.740;2023-04-28T13:14:32;13.83;;;12.23;;
14603;SDS011;7388;51.078;13.740;2023-04-28T13:16:58;12.37;;;10.80;;
14603;SDS011;7388;51.078;13.740;2023-04-28T13:19:24;15.43;;;11.80;;
14603;SDS011;7388;51.078;13.740;2023-04-28T13:21:51;16.17;;;11.82;;
14603;SDS011;7388;51.078;13.740;2023-04-28T13:24:18;12.70;;;11.55;;
14603;SDS011;7388;51.078;13.740;2023-04-28T13:26:44;15.02;;;12.43;;
14603;SDS011;7388;51.078;13.740;2023-04-28T13:29:10;14.98;;;12.07;;
14603;SDS011;7388;51.078;13.740;2023-04-28T13:31:36;15.33;;;11.13;;
14603;SDS011;7388;51.078;13.740;2023-04-28T13:34:02;12.83;;;11.20;;
14603;SDS011;7388;51.078;13.740;2023-04-28T13:36:32;13.60;;;11.85;;
14603;SDS011;7388;51.078;13.740;2023-04-28T13:38:58;12.80;;;11.50;;
14603;SDS011;7388;51.078;13.740;2023-04-28T13:41:24;12.88;;;11.57;;
14603;SDS011;7388;51.078;13.740;2023-04-28T13:43:50;13.97;;;10.60;;
14603;SDS011;7388;51.078;13.740;2023-04-28T13:46:15;16.37;;;12.20;;
14603;SDS011;7388;51.078;13.740;2023-04-28T13:48:41;16.17;;;12.43;;
14603;SDS011;7388;51.078;13.740;2023-04-28T13:51:07;15.23;;;11.90;;
14603;SDS011;7388;51.078;13.740;2023-04-28T13:53:34;17.08;;;11.70;;
14603;SDS011;7388;51.078;13.740;2023-04-28T13:56:01;16.80;;;11.75;;
14603;SDS011;7388;51.078;13.740;2023-04-28T13:58:27;14.17;;;12.13;;
14603;SDS011;7388;51.078;13.740;2023-04-28T14:00:54;14.38;;;11.40;;
14603;SDS011;7388;51.078;13.740;2023-04-28T14:03:21;14.90;;;12.35;;
14603;SDS011;7388;51.078;13.740;2023-04-28T14:05:52;15.57;;;11.88;;
14603;SDS011;7388;51.078;13.740;2023-04-28T14:08:19;16.70;;;12.50;;
14603;SDS011;7388;51.078;13.740;2023-04-28T14:10:46;18.33;;;14.02;;
14603;SDS011;7388;51.078;13.740;2023-04-28T14:13:12;13.80;;;11.90;;
14603;SDS011;7388;51.078;13.740;2023-04-28T14:15:38;14.70;;;13.23;;
14603;SDS011;7388;51.078;13.740;2023-04-28T14:18:04;12.67;;;10.77;;
14603;SDS011;7388;51.078;13.740;2023-04-28T14:20:31;11.60;;;10.38;;
14603;SDS011;7388;51.078;13.740;2023-04-28T14:22:57;17.52;;;12.20;;
14603;SDS011;7388;51.078;13.740;2023-04-28T14:25:23;13.23;;;10.63;;
14603;SDS011;7388;51.078;13.740;2023-04-28T14:27:49;13.80;;;12.40;;
14603;SDS011;7388;51.078;13.740;2023-04-28T14:30:16;13.45;;;12.07;;
14603;SDS011;7388;51.078;13.740;2023-04-28T14:32:42;13.40;;;12.10;;
14603;SDS011;7388;51.078;13.740;2023-04-28T14:35:09;12.13;;;10.93;;
14603;SDS011;7388;51.078;13.740;2023-04-28T14:37:36;12.18;;;10.05;;
14603;SDS011;7388;51.078;13.740;2023-04-28T14:40:02;14.60;;;11.83;;
14603;SDS011;7388;51.078;13.740;2023-04-28T14:42:30;12.35;;;11.07;;
14603;SDS011;7388;51.078;13.740;2023-04-28T14:44:57;12.13;;;10.82;;
14603;SDS011;7388;51.078;13.740;2023-04-28T14:47:24;13.10;;;11.80;;
14603;SDS011;7388;51.078;13.740;2023-04-28T14:49:52;13.30;;;11.20;;
14603;SDS011;7388;51.078;13.740;2023-04-28T14:52:22;14.27;;;11.00;;
14603;SDS011;7388;51.078;13.740;2023-04-28T14:54:51;11.77;;;10.52;;
14603;SDS011;7388;51.078;13.740;2023-04-28T14:57:18;12.50;;;10.73;;
14603;SDS011;7388;51.078;13.740;2023-04-28T14:59:44;12.32;;;10.98;;
14603;SDS011;7388;51.078;13.740;2023-04-28T15:02:10;12.20;;;11.00;;